Time;durP1;ratioP1;P1;durP2;ratioP2;P2;SDS_P1;SDS_P2;PMS_P1;PMS_P2;Temp;Humidity;BMP_temperature;BMP_pressure;BME280_temperature;BME280_humidity;BME280_pressure;Samples;Min_cycle;Max_cycle;Signal;HPM_P1;HPM_P2
2022/03/09 00:00:09;;;;;;;198.20;123.40;;;;;;;0.04;68.32;98505.55;105406;1281;22672;-80
2022/03/09 00:02:57;;;;;;;197.50;118.90;;;;;;;-0.04;68.19;98506.64;105931;1281;22541;-79
2022/03/09 00:05:25;;;;;;;176.70;112.20;;;;;;;-0.13;68.30;98506.17;105862;1280;22864;-77
2022/03/09 00:07:53;;;;;;;176.90;108.20;;;;;;;-0.21;68.27;98507.17;105716;1281;22712;-79
2022/03/09 00:10:23;;;;;;;168.60;105.90;;;;;;;-0.29;68.27;98509.61;106193;1281;25369;-76
2022/03/09 00:12:52;;;;;;;175.50;112.00;;;;;;;-0.36;68.37;98510.85;105424;1281;25412;-76
2022/03/09 00:15:20;;;;;;;174.10;107.80;;;;;;;-0.42;68.43;98511.33;105502;1280;25367;-78
2022/03/09 00:17:48;;;;;;;167.30;104.70;;;;;;;-0.43;68.49;98509.17;105490;1280;22557;-77
2022/03/09 00:20:16;;;;;;;173.20;103.30;;;;;;;-0.40;68.72;98508.95;105719;1281;22692;-76
2022/03/09 00:22:45;;;;;;;165.70;103.30;;;;;;;-0.33;68.84;98508.46;105557;1280;22546;-76
2022/03/09 00:25:13;;;;;;;173.00;104.10;;;;;;;-0.26;68.79;98508.49;105677;1281;22540;-78
2022/03/09 00:27:41;;;;;;;169.70;104.20;;;;;;;-0.22;68.84;98511.85;106106;1278;25368;-78
2022/03/09 00:30:09;;;;;;;171.20;105.80;;;;;;;-0.19;68.84;98509.27;105727;1280;22551;-78
2022/03/09 00:32:40;;;;;;;171.30;109.00;;;;;;;-0.16;68.72;98502.84;105877;1281;22546;-77
2022/03/09 00:35:08;;;;;;;181.50;110.60;;;;;;;-0.13;68.89;98502.25;106197;1278;22809;-78
2022/03/09 00:37:44;;;;;;;186.90;117.00;;;;;;;-0.10;68.81;98499.80;106947;1277;24087;-78
2022/03/09 00:40:12;;;;;;;182.60;114.30;;;;;;;-0.10;68.85;98494.13;105920;1278;22548;-76
2022/03/09 00:42:42;;;;;;;187.80;118.90;;;;;;;-0.09;68.86;98497.31;105827;1277;22574;-78
2022/03/09 00:45:11;;;;;;;182.30;115.10;;;;;;;-0.09;68.85;98498.73;105777;1281;25299;-76
2022/03/09 00:47:39;;;;;;;184.70;115.90;;;;;;;-0.09;68.73;98499.46;105800;1277;22547;-77
2022/03/09 00:50:09;;;;;;;185.10;108.90;;;;;;;-0.08;68.82;98498.55;105706;1277;24335;-78
2022/03/09 00:52:37;;;;;;;175.60;109.60;;;;;;;-0.04;68.78;98501.90;105855;1277;25494;-79
2022/03/09 00:55:07;;;;;;;189.10;114.00;;;;;;;-0.02;68.77;98493.04;105952;1277;22636;-78
2022/03/09 00:57:39;;;;;;;193.00;119.30;;;;;;;0.00;68.76;98489.44;105677;1278;22586;-77
2022/03/09 01:00:09;;;;;;;179.30;109.10;;;;;;;-0.02;68.88;98482.57;105871;1277;24257;-77
2022/03/09 01:02:46;;;;;;;168.80;105.70;;;;;;;-0.05;68.79;98485.77;105993;1277;25493;-77
2022/03/09 01:05:14;;;;;;;132.70;87.40;;;;;;;-0.09;68.87;98478.34;105688;1277;25324;-76
2022/03/09 01:07:45;;;;;;;117.90;81.80;;;;;;;-0.12;69.00;98471.96;105822;1277;23473;-77
2022/03/09 01:10:13;;;;;;;132.80;84.30;;;;;;;-0.15;68.99;98469.51;105907;1277;22701;-76
2022/03/09 01:12:45;;;;;;;123.00;86.70;;;;;;;-0.18;68.91;98471.98;105714;1277;24561;-77
2022/03/09 01:15:13;;;;;;;129.80;85.40;;;;;;;-0.23;68.86;98471.61;105684;1277;22648;-77
2022/03/09 01:17:45;;;;;;;127.50;88.40;;;;;;;-0.28;68.83;98475.75;105584;1277;22712;-77
2022/03/09 01:20:14;;;;;;;120.20;83.70;;;;;;;-0.33;68.88;98475.71;105650;1277;22572;-78
2022/03/09 01:22:45;;;;;;;137.30;85.20;;;;;;;-0.32;68.96;98474.77;105827;1278;22619;-78
2022/03/09 01:25:14;;;;;;;145.70;87.20;;;;;;;-0.28;69.14;98475.38;105637;1277;215971;-77
2022/03/09 01:27:41;;;;;;;141.50;89.40;;;;;;;-0.22;69.12;98472.13;105838;1277;24451;-77
2022/03/09 01:30:10;;;;;;;157.80;93.50;;;;;;;-0.17;69.24;98470.91;105570;1277;22725;-77
2022/03/09 01:32:38;;;;;;;168.10;104.60;;;;;;;-0.13;69.31;98469.98;105717;1277;25344;-77
2022/03/09 01:35:07;;;;;;;163.40;105.70;;;;;;;-0.13;69.27;98471.16;106029;1278;22721;-78
2022/03/09 01:37:34;;;;;;;166.90;103.80;;;;;;;-0.15;69.07;98468.41;105939;1277;24439;-77
2022/03/09 01:40:03;;;;;;;166.70;104.00;;;;;;;-0.17;69.35;98460.69;105938;1278;22582;-77
2022/03/09 01:42:31;;;;;;;187.20;119.10;;;;;;;-0.17;69.27;98461.34;105931;1277;22703;-77
2022/03/09 01:45:07;;;;;;;185.90;116.60;;;;;;;-0.19;69.19;98459.83;105956;1277;24517;-77
2022/03/09 01:47:35;;;;;;;185.40;117.00;;;;;;;-0.23;69.24;98463.09;105788;1277;22554;-77
2022/03/09 01:50:05;;;;;;;185.20;114.10;;;;;;;-0.27;69.37;98463.23;105720;1278;23272;-77
2022/03/09 01:52:34;;;;;;;180.40;110.40;;;;;;;-0.27;69.40;98462.54;105760;1277;22627;-77
2022/03/09 01:55:03;;;;;;;175.40;111.90;;;;;;;-0.26;69.19;98464.13;105734;1278;22704;-76
2022/03/09 01:57:32;;;;;;;175.20;110.60;;;;;;;-0.27;69.12;98461.86;105768;1278;22587;-75
2022/03/09 02:00:00;;;;;;;187.40;114.90;;;;;;;-0.30;69.20;98462.04;105697;1277;22631;-75
2022/03/09 02:02:28;;;;;;;183.80;115.70;;;;;;;-0.35;69.14;98460.64;105799;1277;25303;-75
2022/03/09 02:04:58;;;;;;;184.80;114.90;;;;;;;-0.39;69.43;98455.73;105841;1277;25378;-76
2022/03/09 02:10:13;;;;;;;173.00;113.00;;;;;;;-0.46;69.58;98448.41;105606;1277;24444;-75
2022/03/09 02:12:41;;;;;;;180.20;117.80;;;;;;;-0.49;69.58;98449.73;105708;1278;22560;-76
2022/03/09 02:15:08;;;;;;;181.80;117.50;;;;;;;-0.53;69.72;98447.23;105722;1278;22553;-76
2022/03/09 02:17:36;;;;;;;182.80;113.30;;;;;;;-0.55;69.74;98450.88;105654;1278;24555;-76
2022/03/09 02:20:05;;;;;;;165.00;106.70;;;;;;;-0.52;69.89;98450.98;105581;1277;22566;-76
2022/03/09 02:22:36;;;;;;;164.90;104.50;;;;;;;-0.48;69.80;98449.45;105591;1277;22688;-76
2022/03/09 02:25:08;;;;;;;164.40;106.00;;;;;;;-0.43;69.60;98449.46;105633;1278;22720;-77
2022/03/09 02:27:37;;;;;;;178.80;113.30;;;;;;;-0.41;69.77;98448.75;105703;1278;22650;-75
2022/03/09 02:30:07;;;;;;;178.40;115.40;;;;;;;-0.39;69.85;98444.87;105738;1278;22531;-76
2022/03/09 02:32:49;;;;;;;190.20;125.40;;;;;;;-0.37;70.15;98443.99;105671;1278;24260;-75
2022/03/09 02:35:18;;;;;;;201.10;129.20;;;;;;;-0.34;70.26;98440.48;105698;1278;26188;-75
2022/03/09 02:37:47;;;;;;;207.20;130.90;;;;;;;-0.34;70.08;98443.73;105640;1277;22656;-74
2022/03/09 02:40:17;;;;;;;196.80;131.80;;;;;;;-0.34;70.17;98441.48;105716;1277;24433;-76
2022/03/09 02:42:45;;;;;;;211.50;134.60;;;;;;;-0.37;70.19;98440.98;105770;1277;25382;-76
2022/03/09 02:45:13;;;;;;;205.20;132.40;;;;;;;-0.40;70.07;98439.86;105700;1277;25255;-76
2022/03/09 02:47:44;;;;;;;205.10;127.20;;;;;;;-0.47;69.92;98441.55;105716;1278;25263;-78
2022/03/09 02:50:14;;;;;;;190.20;120.20;;;;;;;-0.52;69.98;98437.11;105824;1278;24332;-75
2022/03/09 02:52:44;;;;;;;183.50;116.70;;;;;;;-0.51;70.02;98440.42;105747;1278;22597;-75
2022/03/09 02:55:14;;;;;;;199.00;122.90;;;;;;;-0.48;70.17;98446.59;105856;1278;24412;-75
2022/03/09 02:57:43;;;;;;;195.80;125.20;;;;;;;-0.44;70.45;98444.70;105809;1277;22755;-75
2022/03/09 03:00:12;;;;;;;197.80;128.80;;;;;;;-0.42;70.41;98444.73;105621;1278;22924;-75
2022/03/09 03:02:40;;;;;;;201.60;129.00;;;;;;;-0.41;70.37;98446.02;105702;1277;23099;-75
2022/03/09 03:05:09;;;;;;;202.70;132.80;;;;;;;-0.42;70.49;98444.03;105961;1277;22605;-75
2022/03/09 03:07:38;;;;;;;212.10;137.80;;;;;;;-0.41;70.63;98443.49;106072;1278;22544;-76
2022/03/09 03:10:35;;;;;;;203.90;135.20;;;;;;;-0.39;70.54;98447.67;105860;1277;25379;-78
2022/03/09 03:13:03;;;;;;;200.70;132.40;;;;;;;-0.40;70.54;98451.40;105875;1278;22796;-75
2022/03/09 03:15:31;;;;;;;213.00;127.40;;;;;;;-0.42;70.39;98450.22;105723;1278;22802;-77
2022/03/09 03:17:59;;;;;;;205.20;125.30;;;;;;;-0.46;70.31;98451.59;105481;1278;24833;-76
2022/03/09 03:20:27;;;;;;;198.80;119.00;;;;;;;-0.47;70.37;98454.79;105727;1277;22720;-75
2022/03/09 03:22:55;;;;;;;200.40;122.30;;;;;;;-0.47;70.48;98453.36;105619;1277;23935;-75
2022/03/09 03:25:23;;;;;;;195.80;123.20;;;;;;;-0.45;70.62;98447.23;105572;1280;22589;-76
2022/03/09 03:27:51;;;;;;;194.90;125.50;;;;;;;-0.42;70.74;98447.38;105701;1277;25386;-75
2022/03/09 03:30:19;;;;;;;199.20;127.90;;;;;;;-0.45;70.63;98446.34;105721;1277;25261;-75
2022/03/09 03:32:47;;;;;;;205.50;134.10;;;;;;;-0.49;70.75;98440.86;105721;1277;23937;-76
2022/03/09 03:35:15;;;;;;;197.70;129.00;;;;;;;-0.50;70.87;98439.08;105709;1277;22554;-76
2022/03/09 03:37:43;;;;;;;215.20;134.80;;;;;;;-0.52;70.98;98440.96;105708;1277;22621;-75
2022/03/09 03:40:11;;;;;;;241.60;144.90;;;;;;;-0.52;71.01;98439.95;105705;1277;25521;-75
2022/03/09 03:42:38;;;;;;;232.20;136.20;;;;;;;-0.51;71.18;98442.41;105701;1277;23017;-76
2022/03/09 03:45:07;;;;;;;217.90;127.80;;;;;;;-0.48;71.18;98440.29;105689;1277;25345;-75
2022/03/09 03:47:35;;;;;;;199.90;123.00;;;;;;;-0.43;70.90;98440.86;105891;1277;25391;-77
2022/03/09 03:50:03;;;;;;;200.00;126.30;;;;;;;-0.39;71.02;98439.57;105671;1277;24289;-76
2022/03/09 03:52:31;;;;;;;201.80;128.40;;;;;;;-0.34;71.25;98442.36;105532;1280;24202;-75
2022/03/09 03:54:59;;;;;;;209.20;134.70;;;;;;;-0.28;71.31;98442.10;105675;1281;22563;-73
2022/03/09 03:57:26;;;;;;;209.50;133.90;;;;;;;-0.26;71.33;98445.42;105588;1281;23383;-75
2022/03/09 03:59:55;;;;;;;210.00;136.50;;;;;;;-0.23;71.24;98441.78;105695;1278;22556;-76
2022/03/09 04:02:23;;;;;;;211.60;142.10;;;;;;;-0.26;71.35;98444.68;105593;1281;22693;-76
2022/03/09 04:04:51;;;;;;;226.40;147.80;;;;;;;-0.28;71.29;98448.77;105558;1281;23795;-76
2022/03/09 04:07:19;;;;;;;224.10;148.70;;;;;;;-0.29;71.17;98454.21;105722;1280;22557;-76
2022/03/09 04:09:47;;;;;;;211.70;138.40;;;;;;;-0.33;71.16;98452.60;105674;1280;22582;-76
2022/03/09 04:12:15;;;;;;;204.80;134.10;;;;;;;-0.32;71.11;98455.66;105691;1280;22997;-76
2022/03/09 04:14:43;;;;;;;195.70;127.30;;;;;;;-0.28;71.30;98454.00;105584;1280;22699;-78
2022/03/09 04:17:11;;;;;;;225.90;139.20;;;;;;;-0.23;71.27;98450.91;105565;1281;24416;-76
2022/03/09 04:19:39;;;;;;;224.10;147.30;;;;;;;-0.17;71.39;98448.51;105934;1280;22586;-77
2022/03/09 04:22:07;;;;;;;215.60;138.50;;;;;;;-0.15;71.34;98447.26;105710;1280;25483;-77
2022/03/09 04:24:36;;;;;;;211.90;144.50;;;;;;;-0.14;71.49;98449.77;105817;1280;25254;-77
2022/03/09 04:27:07;;;;;;;215.90;146.00;;;;;;;-0.16;71.48;98449.87;105712;1280;22586;-77
2022/03/09 04:29:34;;;;;;;227.50;146.60;;;;;;;-0.20;71.43;98448.73;105922;1280;22704;-76
2022/03/09 04:32:03;;;;;;;224.00;146.50;;;;;;;-0.24;71.36;98450.18;105524;1281;23540;-77
2022/03/09 04:34:30;;;;;;;234.10;157.80;;;;;;;-0.28;71.36;98452.27;105836;1279;22679;-77
2022/03/09 04:36:58;;;;;;;228.90;150.80;;;;;;;-0.31;71.47;98458.54;105763;1280;22547;-76
2022/03/09 04:39:26;;;;;;;208.50;135.20;;;;;;;-0.31;71.50;98460.66;105518;1280;22714;-76
2022/03/09 04:41:54;;;;;;;221.30;135.60;;;;;;;-0.28;71.35;98464.89;105670;1280;22579;-76
2022/03/09 04:44:22;;;;;;;213.60;137.50;;;;;;;-0.27;71.40;98468.61;105697;1280;22704;-75
2022/03/09 04:46:50;;;;;;;220.20;145.30;;;;;;;-0.29;71.36;98469.73;105591;1280;25379;-77
2022/03/09 04:49:18;;;;;;;218.80;140.60;;;;;;;-0.32;71.47;98463.41;105903;1280;22651;-77
2022/03/09 04:51:49;;;;;;;211.00;142.60;;;;;;;-0.34;71.62;98465.08;105936;1280;22608;-79
2022/03/09 04:54:16;;;;;;;228.90;154.40;;;;;;;-0.34;71.72;98469.29;105918;1280;22501;-79
2022/03/09 04:56:48;;;;;;;233.70;154.00;;;;;;;-0.37;71.59;98469.83;105858;1278;22557;-78
2022/03/09 04:59:17;;;;;;;214.70;146.30;;;;;;;-0.39;71.83;98463.14;105877;1278;25481;-78
2022/03/09 05:01:45;;;;;;;213.10;138.20;;;;;;;-0.40;71.90;98457.98;105854;1280;22566;-78
2022/03/09 05:04:13;;;;;;;209.40;136.30;;;;;;;-0.39;71.68;98460.91;105440;1280;25318;-78
2022/03/09 05:06:40;;;;;;;212.00;134.90;;;;;;;-0.36;71.64;98460.50;105902;1280;25469;-78
2022/03/09 05:09:09;;;;;;;213.40;140.50;;;;;;;-0.37;71.60;98459.60;105910;1278;23014;-79
2022/03/09 05:11:39;;;;;;;193.60;134.10;;;;;;;-0.42;71.76;98463.79;105906;1278;25309;-78
2022/03/09 05:14:07;;;;;;;210.80;138.80;;;;;;;-0.49;71.89;98464.45;105892;1277;24238;-77
2022/03/09 05:16:36;;;;;;;204.60;144.70;;;;;;;-0.58;72.02;98456.27;105567;1279;22557;-79
2022/03/09 05:19:05;;;;;;;206.90;140.10;;;;;;;-0.62;72.14;98458.82;105713;1281;22556;-78
2022/03/09 05:21:38;;;;;;;210.80;137.20;;;;;;;-0.68;72.19;98460.52;105809;1280;22615;-77
2022/03/09 05:24:17;;;;;;;203.00;127.70;;;;;;;-0.76;72.36;98459.10;105804;1277;22706;-78
2022/03/09 05:26:46;;;;;;;197.30;124.60;;;;;;;-0.80;72.34;98457.94;105554;1277;22556;-77
2022/03/09 05:29:15;;;;;;;197.10;128.60;;;;;;;-0.81;72.38;98457.70;105612;1277;22733;-77
2022/03/09 05:31:44;;;;;;;203.30;130.10;;;;;;;-0.80;72.32;98463.48;105705;1280;24374;-77
2022/03/09 05:34:13;;;;;;;207.80;128.50;;;;;;;-0.81;72.37;98467.80;105941;1280;22720;-77
2022/03/09 05:36:42;;;;;;;207.50;135.00;;;;;;;-0.83;72.34;98475.67;105763;1278;22701;-78
2022/03/09 05:39:10;;;;;;;203.30;135.00;;;;;;;-0.85;72.51;98476.33;105960;1278;25527;-77
2022/03/09 05:41:41;;;;;;;203.20;132.90;;;;;;;-0.85;72.78;98476.28;105946;1277;22771;-76
2022/03/09 05:44:09;;;;;;;200.50;131.60;;;;;;;-0.86;72.65;98480.15;105707;1277;22713;-77
2022/03/09 05:46:37;;;;;;;196.10;124.90;;;;;;;-0.86;72.84;98484.23;105701;1280;22542;-76
2022/03/09 05:49:05;;;;;;;193.50;123.80;;;;;;;-0.83;72.83;98486.81;105705;1280;22718;-77
2022/03/09 05:51:33;;;;;;;212.30;133.60;;;;;;;-0.77;72.88;98492.23;105718;1280;26650;-79
2022/03/09 05:54:02;;;;;;;219.40;136.80;;;;;;;-0.70;72.99;98490.59;105693;1278;25524;-77
2022/03/09 05:56:30;;;;;;;217.40;141.90;;;;;;;-0.69;72.91;98487.60;105642;1277;24392;-77
2022/03/09 05:58:58;;;;;;;222.30;147.30;;;;;;;-0.70;72.88;98489.04;105531;1278;22791;-76
2022/03/09 06:01:27;;;;;;;223.30;146.60;;;;;;;-0.71;72.85;98488.46;105711;1278;22573;-78
2022/03/09 06:03:55;;;;;;;216.80;148.90;;;;;;;-0.72;72.91;98490.99;105875;1278;22550;-78
2022/03/09 06:06:24;;;;;;;227.30;154.80;;;;;;;-0.73;72.87;98488.88;105933;1277;26631;-77
2022/03/09 06:08:55;;;;;;;218.80;146.10;;;;;;;-0.74;72.88;98491.45;106053;1278;22682;-77
2022/03/09 06:11:23;;;;;;;205.10;132.00;;;;;;;-0.71;72.88;98492.55;105322;1278;25454;-77
2022/03/09 06:13:54;;;;;;;202.40;129.80;;;;;;;-0.68;72.89;98497.20;105486;1280;22566;-78
2022/03/09 06:16:21;;;;;;;197.70;132.90;;;;;;;-0.67;73.01;98500.95;105942;1278;24330;-77
2022/03/09 06:18:52;;;;;;;212.30;141.60;;;;;;;-0.67;73.04;98500.06;105697;1277;22556;-78
2022/03/09 06:21:20;;;;;;;211.10;138.90;;;;;;;-0.65;73.31;98502.61;105874;1278;22831;-77
2022/03/09 06:23:48;;;;;;;225.10;147.30;;;;;;;-0.61;73.32;98499.99;105890;1280;22630;-78
2022/03/09 06:26:16;;;;;;;223.50;152.20;;;;;;;-0.60;73.17;98503.68;105906;1280;24419;-78
2022/03/09 06:28:44;;;;;;;229.50;157.80;;;;;;;-0.58;73.21;98503.96;105907;1280;25398;-78
2022/03/09 06:31:12;;;;;;;247.90;163.40;;;;;;;-0.57;73.46;98502.61;106012;1280;23208;-77
2022/03/09 06:33:40;;;;;;;218.70;142.80;;;;;;;-0.54;73.13;98503.73;105666;1280;23986;-77
2022/03/09 06:36:08;;;;;;;208.10;136.60;;;;;;;-0.53;73.10;98497.78;105706;1280;22949;-76
2022/03/09 06:38:36;;;;;;;205.90;135.30;;;;;;;-0.52;73.22;98498.26;105720;1280;25496;-76
2022/03/09 06:41:04;;;;;;;216.30;141.50;;;;;;;-0.54;73.24;98497.14;105566;1280;23962;-77
2022/03/09 06:43:32;;;;;;;220.90;145.60;;;;;;;-0.57;73.44;98496.01;105681;1280;24317;-76
2022/03/09 06:46:00;;;;;;;228.30;146.10;;;;;;;-0.58;73.57;98496.70;105544;1279;25772;-77
2022/03/09 06:48:29;;;;;;;238.00;155.90;;;;;;;-0.60;73.62;98496.64;105699;1280;25380;-76
2022/03/09 06:50:56;;;;;;;250.10;166.60;;;;;;;-0.59;73.55;98499.48;105558;1281;22891;-76
2022/03/09 06:53:25;;;;;;;242.40;152.50;;;;;;;-0.58;73.56;98497.89;105719;1280;22706;-76
2022/03/09 06:55:53;;;;;;;217.90;141.10;;;;;;;-0.52;73.70;98499.05;105876;1280;22680;-76
2022/03/09 06:58:20;;;;;;;247.50;151.20;;;;;;;-0.43;73.87;98495.33;105542;1281;25417;-77
2022/03/09 07:00:48;;;;;;;246.70;153.80;;;;;;;-0.33;73.65;98493.74;105744;1280;22549;-78
2022/03/09 07:03:16;;;;;;;271.20;180.50;;;;;;;-0.24;73.88;98498.46;105624;1281;24324;-78
2022/03/09 07:05:45;;;;;;;256.50;169.80;;;;;;;-0.15;73.85;98498.04;105744;1281;24370;-77
2022/03/09 07:08:13;;;;;;;255.60;167.50;;;;;;;-0.10;73.87;98491.96;105826;1281;22722;-77
2022/03/09 07:10:41;;;;;;;247.30;166.80;;;;;;;-0.05;73.84;98495.27;105578;1281;24572;-76
2022/03/09 07:13:09;;;;;;;253.00;166.70;;;;;;;-0.02;73.99;98496.42;105639;1279;22799;-78
2022/03/09 07:15:38;;;;;;;244.30;171.10;;;;;;;0.02;73.78;98496.16;105734;1277;22641;-78
2022/03/09 07:18:06;;;;;;;241.20;158.60;;;;;;;0.03;73.80;98501.29;105658;1279;22665;-77
2022/03/09 07:20:34;;;;;;;252.70;154.40;;;;;;;0.03;73.59;98500.63;105643;1279;22535;-77
2022/03/09 07:23:02;;;;;;;267.70;159.00;;;;;;;0.05;73.50;98501.72;105634;1279;22558;-77
2022/03/09 07:25:30;;;;;;;225.00;147.70;;;;;;;0.08;73.53;98497.89;105407;1279;23009;-77
2022/03/09 07:28:08;;;;;;;222.70;148.40;;;;;;;0.09;73.62;98498.50;105599;1281;22727;-77
2022/03/09 07:30:35;;;;;;;224.50;156.60;;;;;;;0.06;73.69;98501.42;105739;1279;22723;-77
2022/03/09 07:33:03;;;;;;;228.50;157.80;;;;;;;0.02;73.74;98498.93;105951;1279;22664;-78
2022/03/09 07:35:31;;;;;;;235.50;159.00;;;;;;;0.00;73.78;98500.09;105853;1279;22631;-78
2022/03/09 07:37:59;;;;;;;230.80;156.90;;;;;;;-0.01;73.84;98498.09;105783;1279;22591;-78
2022/03/09 07:40:27;;;;;;;216.00;139.80;;;;;;;-0.01;73.97;98494.70;105623;1280;24291;-78
2022/03/09 07:42:55;;;;;;;202.20;133.60;;;;;;;0.02;73.86;98499.63;105697;1279;24401;-74
2022/03/09 07:45:23;;;;;;;210.90;132.50;;;;;;;0.07;73.82;98498.27;105649;1279;25496;-78
2022/03/09 07:47:51;;;;;;;200.60;135.40;;;;;;;0.14;73.88;98505.02;105896;1279;22594;-78
2022/03/09 07:50:19;;;;;;;206.10;141.90;;;;;;;0.20;73.90;98509.45;105868;1279;24299;-76
2022/03/09 07:52:47;;;;;;;220.30;148.50;;;;;;;0.26;74.14;98502.86;105843;1279;24240;-76
2022/03/09 07:55:15;;;;;;;221.70;146.20;;;;;;;0.29;74.12;98502.09;105629;1280;25436;-80
2022/03/09 07:57:43;;;;;;;236.00;150.70;;;;;;;0.31;74.11;98501.79;105886;1280;22718;-78
2022/03/09 08:00:12;;;;;;;219.20;144.70;;;;;;;0.32;74.08;98503.16;105898;1279;22665;-79
2022/03/09 08:02:42;;;;;;;204.50;136.10;;;;;;;0.33;74.20;98503.98;106006;1279;22559;-79
2022/03/09 08:05:12;;;;;;;190.30;125.90;;;;;;;0.36;74.04;98507.94;105752;1279;24291;-79
2022/03/09 08:07:40;;;;;;;186.40;122.20;;;;;;;0.41;74.04;98512.30;105690;1280;26736;-79
2022/03/09 08:10:09;;;;;;;196.00;126.40;;;;;;;0.50;74.03;98510.77;105788;1279;24343;-79
2022/03/09 08:12:38;;;;;;;190.80;130.60;;;;;;;0.56;74.04;98510.69;105915;1279;24751;-78
2022/03/09 08:15:10;;;;;;;184.80;130.40;;;;;;;0.61;73.95;98513.64;105896;1279;24455;-78
2022/03/09 08:17:38;;;;;;;204.70;138.40;;;;;;;0.62;73.98;98511.30;106294;1279;22566;-78
2022/03/09 08:20:07;;;;;;;194.80;131.60;;;;;;;0.65;74.06;98516.15;105867;1279;25269;-78
2022/03/09 08:22:36;;;;;;;190.40;132.20;;;;;;;0.68;74.06;98513.02;105841;1279;24419;-78
2022/03/09 08:25:04;;;;;;;193.70;132.10;;;;;;;0.73;74.10;98511.45;105764;1279;24487;-77
2022/03/09 08:27:32;;;;;;;186.90;125.00;;;;;;;0.79;74.07;98510.95;105613;1279;24438;-78
2022/03/09 08:30:03;;;;;;;187.00;121.60;;;;;;;0.89;74.09;98516.27;105620;1279;25306;-79
2022/03/09 08:32:31;;;;;;;187.20;124.20;;;;;;;0.99;74.16;98512.48;105950;1279;23100;-77
2022/03/09 08:34:59;;;;;;;186.80;124.90;;;;;;;1.05;73.98;98508.05;105675;1279;22867;-79
2022/03/09 08:37:26;;;;;;;180.10;124.30;;;;;;;1.10;74.05;98506.17;105995;1279;22538;-79
2022/03/09 08:39:54;;;;;;;182.70;129.10;;;;;;;1.13;74.17;98508.33;105838;1279;22891;-78
2022/03/09 08:42:22;;;;;;;179.60;123.80;;;;;;;1.16;74.15;98503.93;105884;1279;22549;-78
2022/03/09 08:44:51;;;;;;;182.20;119.10;;;;;;;1.20;74.14;98506.86;106079;1279;25307;-80
2022/03/09 08:47:19;;;;;;;180.60;117.90;;;;;;;1.22;73.95;98502.25;105857;1279;22691;-78
2022/03/09 08:49:47;;;;;;;170.80;112.60;;;;;;;1.31;74.11;98506.90;105750;1279;24448;-79
2022/03/09 08:52:15;;;;;;;182.00;121.50;;;;;;;1.38;73.93;98504.02;105671;1281;23883;-79
2022/03/09 08:54:42;;;;;;;179.50;119.50;;;;;;;1.47;74.11;98500.84;105728;1279;22562;-80
2022/03/09 08:57:10;;;;;;;168.30;112.50;;;;;;;1.54;74.03;98501.89;105786;1279;22559;-79
2022/03/09 08:59:38;;;;;;;163.20;114.50;;;;;;;1.57;73.82;98499.10;105918;1279;25425;-78
2022/03/09 09:02:06;;;;;;;183.30;122.40;;;;;;;1.60;73.80;98496.73;106007;1280;24177;-78
2022/03/09 09:04:34;;;;;;;168.30;108.90;;;;;;;1.63;73.81;98495.11;105937;1280;22858;-77
2022/03/09 09:07:03;;;;;;;160.90;108.10;;;;;;;1.70;73.92;98492.22;105785;1280;22546;-78
2022/03/09 09:09:32;;;;;;;159.80;110.50;;;;;;;1.81;73.87;98490.30;106014;1280;25457;-78
2022/03/09 09:12:01;;;;;;;160.90;113.80;;;;;;;1.90;73.64;98487.67;105894;1280;25370;-79
2022/03/09 09:14:29;;;;;;;169.80;118.00;;;;;;;1.95;73.57;98492.41;105871;1280;25378;-79
2022/03/09 09:16:57;;;;;;;183.10;123.90;;;;;;;1.99;73.47;98487.46;105855;1280;25381;-79
2022/03/09 09:19:26;;;;;;;176.40;118.20;;;;;;;2.02;73.41;98485.36;105866;1280;22657;-79
2022/03/09 09:21:54;;;;;;;170.80;117.30;;;;;;;2.05;73.33;98484.33;106049;1279;24326;-79
2022/03/09 09:24:22;;;;;;;175.60;114.80;;;;;;;2.08;72.99;98481.41;106015;1280;25388;-79
2022/03/09 09:26:50;;;;;;;155.20;104.80;;;;;;;2.14;73.05;98480.92;105879;1280;22585;-79
2022/03/09 09:29:28;;;;;;;169.10;113.30;;;;;;;2.20;73.11;98474.52;105755;1280;22563;-79
2022/03/09 09:31:56;;;;;;;153.10;103.70;;;;;;;2.30;73.14;98472.55;105735;1280;22567;-79
2022/03/09 09:34:25;;;;;;;161.80;110.80;;;;;;;2.35;72.98;98475.23;105941;1280;22657;-79
2022/03/09 09:36:52;;;;;;;174.40;112.80;;;;;;;2.43;72.98;98470.02;105818;1279;22730;-79
2022/03/09 09:39:21;;;;;;;172.30;112.80;;;;;;;2.49;72.93;98463.05;105907;1280;25723;-77
2022/03/09 09:41:54;;;;;;;152.20;103.40;;;;;;;2.57;72.85;98463.60;105923;1280;22863;-78
2022/03/09 09:44:24;;;;;;;133.50;92.90;;;;;;;2.61;72.16;98463.48;105627;1280;25656;-79
2022/03/09 09:46:53;;;;;;;136.30;93.50;;;;;;;2.72;72.32;98457.42;105980;1280;22559;-80
2022/03/09 09:49:26;;;;;;;153.00;99.70;;;;;;;2.84;72.32;98460.23;105869;1280;22549;-78
2022/03/09 09:51:54;;;;;;;152.60;103.80;;;;;;;2.93;72.20;98449.98;106187;1281;24359;-79
2022/03/09 09:54:23;;;;;;;162.80;102.30;;;;;;;3.02;72.49;98446.27;106176;1280;22858;-80
2022/03/09 09:56:58;;;;;;;152.10;101.00;;;;;;;3.12;71.65;98450.62;106163;1280;22568;-77
2022/03/09 09:59:26;;;;;;;155.50;102.30;;;;;;;3.17;71.46;98449.76;106201;1280;25402;-79
2022/03/09 10:01:54;;;;;;;143.20;98.90;;;;;;;3.21;71.30;98444.61;105877;1280;22782;-79
2022/03/09 10:04:25;;;;;;;132.20;93.30;;;;;;;3.28;71.00;98436.44;105877;1280;22559;-79
2022/03/09 10:06:55;;;;;;;121.00;85.80;;;;;;;3.35;70.89;98438.48;105998;1280;25377;-80
2022/03/09 10:09:23;;;;;;;108.70;85.80;;;;;;;3.41;70.72;98437.53;106085;1280;22721;-79
2022/03/09 10:11:53;;;;;;;98.40;79.90;;;;;;;3.49;71.06;98436.39;106000;1280;22691;-79
2022/03/09 10:14:54;;;;;;;127.20;90.00;;;;;;;3.62;71.10;98435.92;105892;1279;25980;-79
2022/03/09 10:17:28;;;;;;;111.30;84.70;;;;;;;3.82;71.72;98437.21;105014;1287;26872;-79
2022/03/09 10:20:10;;;;;;;80.90;67.80;;;;;;;4.00;70.92;98439.12;105316;1287;22761;-79
2022/03/09 10:22:42;;;;;;;74.10;66.60;;;;;;;4.11;70.38;98438.00;105036;1287;22759;-79
2022/03/09 10:25:23;;;;;;;77.00;67.80;;;;;;;4.15;68.62;98438.09;104840;1287;22616;-79
2022/03/09 10:27:54;;;;;;;78.10;67.10;;;;;;;4.16;68.76;98428.48;104905;1287;25539;-79
2022/03/09 10:30:29;;;;;;;71.70;64.10;;;;;;;4.17;68.07;98423.12;104886;1287;24325;-80
2022/03/09 10:32:59;;;;;;;62.30;55.80;;;;;;;4.21;67.87;98426.26;104788;1287;25800;-80
2022/03/09 10:35:30;;;;;;;65.00;58.00;;;;;;;4.20;66.87;98423.26;104904;1287;22677;-79
2022/03/09 10:38:02;;;;;;;67.70;60.50;;;;;;;4.16;66.81;98415.35;104906;1287;22720;-80
2022/03/09 10:40:32;;;;;;;58.90;52.80;;;;;;;4.18;67.01;98415.98;104874;1287;22896;-79
2022/03/09 10:43:22;;;;;;;52.50;46.70;;;;;;;4.26;66.66;98411.51;104853;1287;24473;-79
2022/03/09 10:45:57;;;;;;;45.80;41.30;;;;;;;4.29;65.60;98415.50;104829;1288;22626;-79
2022/03/09 10:48:57;;;;;;;44.10;39.40;;;;;;;4.30;65.69;98419.56;104871;1287;22559;-79
2022/03/09 10:51:26;;;;;;;41.50;37.30;;;;;;;4.36;65.33;98415.85;104911;1287;22640;-79
2022/03/09 10:53:55;;;;;;;39.90;35.60;;;;;;;4.42;65.47;98424.27;105478;1280;24285;-78
2022/03/09 10:56:23;;;;;;;37.70;33.70;;;;;;;4.45;64.90;98423.25;106030;1280;22564;-79
2022/03/09 10:58:51;;;;;;;35.70;31.70;;;;;;;4.50;64.15;98427.58;105937;1279;24478;-78
2022/03/09 11:01:21;;;;;;;35.70;30.70;;;;;;;4.53;63.77;98428.53;105410;1282;22585;-79
2022/03/09 11:03:49;;;;;;;32.30;28.50;;;;;;;4.56;62.96;98432.04;105947;1280;24403;-80
2022/03/09 11:06:17;;;;;;;32.50;29.10;;;;;;;4.54;61.69;98434.20;106002;1280;22569;-80
2022/03/09 11:08:45;;;;;;;32.90;29.50;;;;;;;4.59;62.40;98434.67;105837;1280;24400;-79
2022/03/09 11:11:14;;;;;;;31.80;28.40;;;;;;;4.65;62.26;98438.79;105778;1280;22556;-80